LEBBDXXX

Guest
Details From LEBB - Bilbao
To DXXX - Gnassingbe Eyadema Intl
Flight Number -
Tags Generated
Created
Modified
Stats Distance 2,242 nm / 4,153 km
Max Altitude 0 ft / 0 m
Waypoints 5
Social Downloads 1
Likes 0
Share VATSIM

Download

Looking for another format? Having issues loading an existing format? Contact us
Advertisement - Login to hide

Notes

Generated

Route

LEBB VL001 NS LME DXXX

ID Type Via Altitude Latitude Longitude Leg Dist Tot Dist Heading (true) Name
O LEBB APT - 0 ft / 0 m 43.30335˚ -2.93703˚ - 0 nm - -
VL001 FIX - 0 ft / 0 m 39.39964˚ -2.40964˚ 235 nm 235 nm 174° / 174° -
NS NDB - 0 ft / 0 m 9.70158˚ 1.06314˚ 1793 nm 2028 nm 173° / 175° NIAMTOUGOU NDB
LME NDB - 0 ft / 0 m 6.16519˚ 1.24775˚ 212 nm 2241 nm 177° / 177° LOME NDB
O DXXX APT - 0 ft / 0 m 6.15513˚ 1.24569˚ 0 nm 2242 nm 192° / 192° -

Altitude Profile

Advertisement - Login to hide

Weather


0- 5 10 15 20 25 30 35+ Temperature / ° C

Clouds and Precipitation
Forecast for 2017-12-13 18:00 UTC. Updated 8 minutes ago

Ground ~20,000 ft ~40,000 ft Winds

LEBB

Details ICAO LEBB (BIO)
Name Bilbao
Region Spain
Timezone Europe/Madrid (UTC+1.0)
Stats Elevation 137 ft / 42 m (AMSL)
Location 43.301692° -2.917664°
Runways 2
Magnetic Variation 0.630° W

METAR

LEBB 131300Z 22012G23KT 160V280 CAVOK 13/05 Q1019 NOSIG

Decode

TAF

TAF LEBB 130500Z 1306/1406 20009KT 9999 SCT040 TX15/1314Z TN08/1306Z TEMPO 1306/1321 20015G25KT PROB40 TEMPO 1312/1406 RA PROB40 TEMPO 1321/1406 3000 RA BKN014

Decode

Departure Runways

ID Width Length Bearing (true) Bearing (mag) Surface Threshold Offset Overrun Length
10 148 ft / 45 m 6,569 ft / 2,002 m 96.66° 97.29° Asphalt 20 ft / 6 m 184 ft / 56 m
12 148 ft / 45 m 8,539 ft / 2,603 m 116.73° 117.36° Asphalt 20 ft / 6 m 197 ft / 60 m
28 148 ft / 45 m 6,569 ft / 2,002 m 276.68° 277.31° Asphalt 23 ft / 7 m 0 ft / 0 m
30 148 ft / 45 m 8,539 ft / 2,603 m 296.75° 297.38° Asphalt 1,509 ft / 460 m 171 ft / 52 m

DXXX

Details ICAO DXXX (LFW)
Name GNASSINGBE EYADEMA INTL
Region Togolese Republic
Timezone Africa/Lome (UTC+0.0)
Stats Elevation 72 ft / 22 m (AMSL)
Location 6.165736° 1.254142°
Runways 1
Magnetic Variation 2.874° W

METAR

DXXX 131300Z 19005KT 150V240 3400 DU FEW014 32/25 Q1010 NOSIG

Decode

TAF

TAF DXXX 131100Z 1312/1418 VRB03KT 3600 HZ FEW014 BECMG 1313/1315 20010KT TEMPO 1314/1318 2500 HZ BECMG 1321/1323 VRB03KT TEMPO 1403/1408 2500 BR

Decode

Destination Runways

ID Width Length Bearing (true) Bearing (mag) Surface Threshold Offset Overrun Length
04 148 ft / 45 m 9,878 ft / 3,011 m 38.40° 41.27° Asphalt 0 ft / 0 m 197 ft / 60 m
22 148 ft / 45 m 9,878 ft / 3,011 m 218.40° 221.27° Asphalt 0 ft / 0 m 197 ft / 60 m

Approach Navaids

Runway Type Ident Frequency Range Bearing (true) Bearing (mag) Slope Elevation
22 Localiser LO 110.10 MHz 18 nm / 33 km 218.43° 221.30° - 72 ft / 22 m (AMSL)
22 Glidescope LO 110.10 MHz 15 nm / 28 km 223.00° 225.87° 3.00° 72 ft / 22 m (AMSL)